This is the latest recevied weather packets stored in our database for station/object KE5VT. If no packets are shown the sender has not sent any weather packets the latest 10 day(s).
| Time | Temp. | Humidity | Pressure | Rain* | Wind** | Luminosity | Snow |
|---|---|---|---|---|---|---|---|
| 1787856556 | 30° C | 68% | 1011 hPa | 0 mm | - | 242 W/m² | - |
| 1787856252 | 30° C | 68% | 1010.9 hPa | 0 mm | - | 232 W/m² | - |
| 1787855948 | 29.44° C | 72% | 1010.7 hPa | 0 mm | - | 260 W/m² | - |
| 1787855647 | 29.44° C | 72% | 1010.9 hPa | 0 mm | - | 258 W/m² | - |
| 1787855342 | 30° C | 71% | 1011.1 hPa | 0 mm | - | 172 W/m² | - |
| 1787855042 | 30.56° C | 69% | 1011.2 hPa | 0 mm | - | 149 W/m² | - |
| 1787854738 | 30° C | 69% | 1011.3 hPa | 0 mm | - | 138 W/m² | - |
| 1787854437 | 30.56° C | 70% | 1011.3 hPa | 0 mm | - | 559 W/m² | - |
| 1787854133 | 30.56° C | 69% | 1011.5 hPa | 0 mm | - | 612 W/m² | - |
| 1787853827 | 30° C | 69% | 1011.7 hPa | 0 mm | - | 644 W/m² | - |
| 1787853525 | 30° C | 70% | 1011.6 hPa | 0 mm | - | 528 W/m² | - |
| 1787853221 | 30.56° C | 68% | 1011.8 hPa | 0 mm | - | 277 W/m² | - |
| 1787852920 | 30.56° C | 69% | 1011.9 hPa | 0 mm | - | 673 W/m² | - |
| 1787852616 | 29.44° C | 73% | 1012 hPa | 0 mm | - | 676 W/m² | - |
| 1787852315 | 29.44° C | 73% | 1012.2 hPa | 0 mm | - | 135 W/m² | - |
| 1787852014 | 29.44° C | 72% | 1012.2 hPa | 0 mm | - | 137 W/m² | - |
| 1787851713 | 28.89° C | 74% | 1012.4 hPa | 0 mm | - | 721 W/m² | - |
| 1787851413 | 29.44° C | 73% | 1012.3 hPa | 0 mm | - | 690 W/m² | - |
| 1787851109 | 28.89° C | 75% | 1012.4 hPa | 0 mm | - | 684 W/m² | - |
| 1787850804 | 28.89° C | 75% | 1012.4 hPa | 0 mm | - | 677 W/m² | - |
| 1787850500 | 28.33° C | 77% | 1012.7 hPa | 0 mm | - | 671 W/m² | - |
| 1787850195 | 28.33° C | 77% | 1012.8 hPa | 0 mm | - | 736 W/m² | - |
| 1787849890 | 28.89° C | 74% | 1012.8 hPa | 0 mm | - | 456 W/m² | - |
| 1787849590 | 28.33° C | 78% | 1012.9 hPa | 0 mm | - | 719 W/m² | - |
| 1787849289 | 28.89° C | 78% | 1013 hPa | 0 mm | - | 753 W/m² | - |
* Rain latest hour (hover to see other rain measurements)
** Current wind speed in m/s (hover to see current wind gust speed)